Time;durP1;ratioP1;P1;durP2;ratioP2;P2;SDS_P1;SDS_P2;PMS_P1;PMS_P2;Temp;Humidity;BMP_temperature;BMP_pressure;BME280_temperature;BME280_humidity;BME280_pressure;Samples;Min_cycle;Max_cycle;Signal;HPM_P1;HPM_P2
2022/10/26 00:02:19;;;;;;;9.05;5.75;;;;;;;;;;5027996;28;20049;-66
2022/10/26 00:04:46;;;;;;;8.18;5.70;;;;;;;;;;5025168;28;20072;-66
2022/10/26 00:07:12;;;;;;;9.90;5.15;;;;;;;;;;5017024;28;20042;-66
2022/10/26 00:09:39;;;;;;;8.43;5.05;;;;;;;;;;5020008;28;20129;-65
2022/10/26 00:12:06;;;;;;;10.57;5.57;;;;;;;;;;5024360;28;20048;-68
2022/10/26 00:14:32;;;;;;;9.43;4.97;;;;;;;;;;5026383;28;20429;-68
2022/10/26 00:16:59;;;;;;;6.38;4.85;;;;;;;;;;5030799;28;20049;-67
2022/10/26 00:19:25;;;;;;;8.35;5.45;;;;;;;;;;5027471;28;20045;-67
2022/10/26 00:21:52;;;;;;;7.45;5.22;;;;;;;;;;5030916;28;20044;-67
2022/10/26 00:24:18;;;;;;;7.20;5.28;;;;;;;;;;5031228;28;20045;-67
2022/10/26 00:26:46;;;;;;;7.32;4.93;;;;;;;;;;5027850;28;20042;-66
2022/10/26 00:29:12;;;;;;;8.40;5.22;;;;;;;;;;5032012;28;20567;-65
2022/10/26 00:31:39;;;;;;;10.05;5.35;;;;;;;;;;5031123;28;20132;-65
2022/10/26 00:34:05;;;;;;;7.38;4.97;;;;;;;;;;5026333;28;20038;-65
2022/10/26 00:36:32;;;;;;;9.98;5.00;;;;;;;;;;5026044;28;20052;-65
2022/10/26 00:38:58;;;;;;;6.85;4.60;;;;;;;;;;5027506;28;20062;-65
2022/10/26 00:41:27;;;;;;;7.00;4.95;;;;;;;;;;5014493;28;20045;-66
2022/10/26 00:43:54;;;;;;;7.63;4.72;;;;;;;;;;5029732;28;20034;-66
2022/10/26 00:46:22;;;;;;;7.07;4.93;;;;;;;;;;5030706;28;20041;-66
2022/10/26 00:48:54;;;;;;;9.90;5.00;;;;;;;;;;5027238;28;20044;-67
2022/10/26 00:51:23;;;;;;;7.57;4.70;;;;;;;;;;5026993;28;20072;-67
2022/10/26 00:53:51;;;;;;;9.05;5.13;;;;;;;;;;5029921;28;20460;-66
2022/10/26 00:56:17;;;;;;;7.93;5.03;;;;;;;;;;5032153;28;20076;-66
2022/10/26 00:58:44;;;;;;;8.10;4.47;;;;;;;;;;5030256;28;20041;-67
2022/10/26 01:01:11;;;;;;;7.30;4.82;;;;;;;;;;5026903;28;20042;-66
2022/10/26 01:03:38;;;;;;;6.82;4.10;;;;;;;;;;5026833;28;20056;-66
2022/10/26 01:06:05;;;;;;;7.72;4.75;;;;;;;;;;5027653;28;20128;-66
2022/10/26 01:08:32;;;;;;;7.63;4.60;;;;;;;;;;5029223;28;20050;-66
2022/10/26 01:10:59;;;;;;;7.65;5.13;;;;;;;;;;5029685;28;20108;-66
2022/10/26 01:13:27;;;;;;;6.53;4.63;;;;;;;;;;5028640;28;20048;-66
2022/10/26 01:16:12;;;;;;;6.43;4.40;;;;;;;;;;5030831;28;20076;-66
2022/10/26 01:18:44;;;;;;;6.65;4.50;;;;;;;;;;5030588;28;20050;-66
2022/10/26 01:21:29;;;;;;;7.60;4.82;;;;;;;;;;5026953;28;20156;-66
2022/10/26 01:24:04;;;;;;;8.32;4.20;;;;;;;;;;5026812;28;20143;-66
2022/10/26 01:26:40;;;;;;;7.78;4.45;;;;;;;;;;5013759;28;20057;-67
2022/10/26 01:29:21;;;;;;;6.43;4.20;;;;;;;;;;5030189;28;20144;-67
2022/10/26 01:31:57;;;;;;;7.88;4.22;;;;;;;;;;5027364;28;20049;-67
2022/10/26 01:34:35;;;;;;;6.28;4.72;;;;;;;;;;5026131;28;20107;-68
2022/10/26 01:37:06;;;;;;;6.97;4.40;;;;;;;;;;5025994;28;20073;-68
2022/10/26 01:39:38;;;;;;;8.45;5.18;;;;;;;;;;5029367;28;20461;-69
2022/10/26 01:42:07;;;;;;;7.53;4.30;;;;;;;;;;5026835;28;20120;-68
2022/10/26 01:44:40;;;;;;;10.20;4.47;;;;;;;;;;5029856;28;20049;-66
2022/10/26 01:47:08;;;;;;;5.95;4.13;;;;;;;;;;5030994;28;20033;-66
2022/10/26 01:49:37;;;;;;;8.20;4.00;;;;;;;;;;5026083;28;20045;-66
2022/10/26 01:52:03;;;;;;;6.30;4.07;;;;;;;;;;5027458;28;20482;-67
2022/10/26 01:54:30;;;;;;;7.95;4.63;;;;;;;;;;5024425;28;20706;-67
2022/10/26 01:57:00;;;;;;;7.68;4.63;;;;;;;;;;5011606;28;20050;-67
2022/10/26 01:59:53;;;;;;;6.70;4.78;;;;;;;;;;5028595;28;20136;-68
2022/10/26 02:02:43;;;;;;;10.60;4.45;;;;;;;;;;5026586;28;20494;-67
2022/10/26 02:05:19;;;;;;;6.13;4.35;;;;;;;;;;5030152;28;20038;-68
2022/10/26 02:07:54;;;;;;;14.43;4.45;;;;;;;;;;5024903;28;20459;-67
2022/10/26 02:10:21;;;;;;;6.25;4.03;;;;;;;;;;5022425;28;20048;-67
2022/10/26 02:13:01;;;;;;;8.93;4.72;;;;;;;;;;5027328;28;20045;-67
2022/10/26 02:15:36;;;;;;;5.68;4.40;;;;;;;;;;5025438;28;20413;-68
2022/10/26 02:18:06;;;;;;;6.35;4.35;;;;;;;;;;5025770;28;20041;-67
2022/10/26 02:20:34;;;;;;;7.35;4.35;;;;;;;;;;5028499;28;20041;-67
2022/10/26 02:23:03;;;;;;;5.45;4.00;;;;;;;;;;5028203;28;20041;-66
2022/10/26 02:25:30;;;;;;;6.50;4.53;;;;;;;;;;5027511;28;20052;-66
2022/10/26 02:28:00;;;;;;;6.47;4.20;;;;;;;;;;5024876;28;20124;-67
2022/10/26 02:30:27;;;;;;;7.43;4.32;;;;;;;;;;5025295;28;20045;-66
2022/10/26 02:32:55;;;;;;;6.13;4.15;;;;;;;;;;5028875;28;20448;-66
2022/10/26 02:35:25;;;;;;;6.43;4.32;;;;;;;;;;5026289;28;20048;-66
2022/10/26 02:37:52;;;;;;;7.60;3.92;;;;;;;;;;5025011;28;20043;-66
2022/10/26 02:40:21;;;;;;;6.13;4.45;;;;;;;;;;5025117;28;20041;-66
2022/10/26 02:42:49;;;;;;;6.45;4.40;;;;;;;;;;5029302;28;20458;-66
2022/10/26 02:45:17;;;;;;;7.32;4.50;;;;;;;;;;5024997;28;20480;-66
2022/10/26 02:47:44;;;;;;;6.65;4.38;;;;;;;;;;5029189;28;20033;-66
2022/10/26 02:50:11;;;;;;;7.28;4.03;;;;;;;;;;5029563;28;20402;-66
2022/10/26 02:52:43;;;;;;;5.75;3.60;;;;;;;;;;5028886;28;20460;-66
2022/10/26 02:55:13;;;;;;;6.95;4.65;;;;;;;;;;5024821;28;20044;-67
2022/10/26 02:57:42;;;;;;;5.82;4.13;;;;;;;;;;5022435;28;20046;-67
2022/10/26 03:00:10;;;;;;;9.20;4.28;;;;;;;;;;5011599;28;20038;-66
2022/10/26 03:02:42;;;;;;;6.00;4.38;;;;;;;;;;5025906;28;20046;-69
2022/10/26 03:05:13;;;;;;;5.03;3.90;;;;;;;;;;5026148;28;20464;-70
2022/10/26 03:07:40;;;;;;;7.15;4.28;;;;;;;;;;5025439;28;20044;-69
2022/10/26 03:10:06;;;;;;;7.28;3.47;;;;;;;;;;5024659;28;20037;-68
2022/10/26 03:12:33;;;;;;;6.45;4.53;;;;;;;;;;5024670;28;20461;-68
2022/10/26 03:14:59;;;;;;;6.80;4.22;;;;;;;;;;5025721;28;20489;-68
2022/10/26 03:17:26;;;;;;;7.20;4.38;;;;;;;;;;5028295;28;20048;-68
2022/10/26 03:19:53;;;;;;;5.97;3.63;;;;;;;;;;5027898;28;20045;-67
2022/10/26 03:22:20;;;;;;;6.28;4.03;;;;;;;;;;5024084;28;20041;-67
2022/10/26 03:24:46;;;;;;;7.22;4.60;;;;;;;;;;5028018;28;20476;-67
2022/10/26 03:27:13;;;;;;;7.75;4.05;;;;;;;;;;5024777;28;20502;-67
2022/10/26 03:29:40;;;;;;;8.40;4.07;;;;;;;;;;5025746;28;20596;-68
2022/10/26 03:32:06;;;;;;;5.00;3.80;;;;;;;;;;5028038;28;20041;-68
2022/10/26 03:34:33;;;;;;;5.70;4.40;;;;;;;;;;5028101;28;20096;-67
2022/10/26 03:36:59;;;;;;;8.52;3.70;;;;;;;;;;5024541;28;20037;-67
2022/10/26 03:39:26;;;;;;;7.60;4.20;;;;;;;;;;5024200;28;20137;-68
2022/10/26 03:41:54;;;;;;;7.70;4.32;;;;;;;;;;5027558;28;20055;-68
2022/10/26 03:44:21;;;;;;;5.07;3.65;;;;;;;;;;5028232;28;20125;-67
2022/10/26 03:46:47;;;;;;;5.55;4.03;;;;;;;;;;5024727;28;20053;-66
2022/10/26 03:49:14;;;;;;;5.13;4.00;;;;;;;;;;5028440;28;20041;-66
2022/10/26 03:51:40;;;;;;;5.57;4.35;;;;;;;;;;5028155;28;20033;-67
2022/10/26 03:54:07;;;;;;;5.82;4.10;;;;;;;;;;5032113;28;20076;-67
2022/10/26 03:56:33;;;;;;;6.13;3.80;;;;;;;;;;5030625;28;20042;-66
2022/10/26 03:59:00;;;;;;;8.00;4.50;;;;;;;;;;5030242;28;20049;-67
2022/10/26 04:01:26;;;;;;;5.80;4.03;;;;;;;;;;5027898;28;20049;-67
2022/10/26 04:03:53;;;;;;;7.15;4.25;;;;;;;;;;5029796;28;20552;-66
2022/10/26 04:06:19;;;;;;;6.13;3.90;;;;;;;;;;5031742;28;20050;-66
2022/10/26 04:08:46;;;;;;;5.07;4.10;;;;;;;;;;5029057;28;20030;-66
2022/10/26 04:11:12;;;;;;;8.68;4.50;;;;;;;;;;5032405;28;20054;-66
2022/10/26 04:13:39;;;;;;;7.22;3.85;;;;;;;;;;5027841;28;20037;-66
2022/10/26 04:16:05;;;;;;;5.57;3.85;;;;;;;;;;5027758;28;20060;-66
2022/10/26 04:18:32;;;;;;;7.20;3.75;;;;;;;;;;5027490;28;20038;-66
2022/10/26 04:21:01;;;;;;;5.70;4.22;;;;;;;;;;5028735;28;20037;-66
2022/10/26 04:23:28;;;;;;;5.07;4.20;;;;;;;;;;5031273;28;20041;-67
2022/10/26 04:25:54;;;;;;;5.15;4.00;;;;;;;;;;5031595;28;20041;-66
2022/10/26 04:28:21;;;;;;;5.45;3.80;;;;;;;;;;5026898;28;20045;-66
2022/10/26 04:30:47;;;;;;;5.68;3.92;;;;;;;;;;5027939;28;20482;-66
2022/10/26 04:33:14;;;;;;;5.47;4.13;;;;;;;;;;5027571;28;20120;-66
2022/10/26 04:35:41;;;;;;;5.50;4.00;;;;;;;;;;5030935;28;20394;-66
2022/10/26 04:38:08;;;;;;;5.50;3.95;;;;;;;;;;5031082;28;20041;-66
2022/10/26 04:40:35;;;;;;;6.15;4.20;;;;;;;;;;5027015;28;20056;-66
2022/10/26 04:43:01;;;;;;;5.55;3.78;;;;;;;;;;5022121;28;20044;-66
2022/10/26 04:45:29;;;;;;;5.85;4.18;;;;;;;;;;5016383;28;20457;-66
2022/10/26 04:48:00;;;;;;;7.85;4.07;;;;;;;;;;5027174;28;20026;-66
2022/10/26 04:50:26;;;;;;;6.63;4.20;;;;;;;;;;5031112;28;20071;-67
2022/10/26 04:52:54;;;;;;;4.43;3.70;;;;;;;;;;5031107;28;20034;-67
2022/10/26 04:55:20;;;;;;;5.97;4.05;;;;;;;;;;5027130;28;20477;-66
2022/10/26 04:57:47;;;;;;;5.18;3.85;;;;;;;;;;5026919;28;20479;-68
2022/10/26 05:00:14;;;;;;;5.43;4.13;;;;;;;;;;5026102;28;20045;-66
2022/10/26 05:02:40;;;;;;;5.28;3.72;;;;;;;;;;5031244;28;20478;-66
2022/10/26 05:05:07;;;;;;;5.70;4.15;;;;;;;;;;5031898;28;20095;-66
2022/10/26 05:07:39;;;;;;;5.30;4.32;;;;;;;;;;5028187;28;20071;-67
2022/10/26 05:10:06;;;;;;;5.93;3.58;;;;;;;;;;5026702;28;20034;-67
2022/10/26 05:12:32;;;;;;;6.95;4.30;;;;;;;;;;5026657;28;20053;-66
2022/10/26 05:14:59;;;;;;;4.78;3.78;;;;;;;;;;5026923;28;20508;-67
2022/10/26 05:17:30;;;;;;;5.55;3.58;;;;;;;;;;5029775;28;20060;-66
2022/10/26 05:19:59;;;;;;;4.93;3.83;;;;;;;;;;5029278;28;20045;-67
2022/10/26 05:22:25;;;;;;;9.10;3.85;;;;;;;;;;5030005;28;20394;-67
2022/10/26 05:24:52;;;;;;;7.13;4.15;;;;;;;;;;5026851;28;20632;-67
2022/10/26 05:27:18;;;;;;;7.55;3.97;;;;;;;;;;5030233;28;20038;-68
2022/10/26 05:29:45;;;;;;;11.68;4.15;;;;;;;;;;5029976;28;20046;-74
2022/10/26 05:32:11;;;;;;;10.10;4.57;;;;;;;;;;5031596;28;20041;-72
2022/10/26 05:34:38;;;;;;;18.08;4.10;;;;;;;;;;5026683;28;20060;-70
2022/10/26 05:37:06;;;;;;;17.30;4.32;;;;;;;;;;5026438;28;20041;-67
2022/10/26 05:39:33;;;;;;;8.43;4.32;;;;;;;;;;5030287;28;20065;-64
2022/10/26 05:41:59;;;;;;;14.27;4.97;;;;;;;;;;5029262;28;20041;-75
2022/10/26 05:44:26;;;;;;;19.90;4.72;;;;;;;;;;5026101;28;20041;-75
2022/10/26 05:46:53;;;;;;;11.80;4.25;;;;;;;;;;5027244;28;20406;-74
2022/10/26 05:49:19;;;;;;;9.30;4.13;;;;;;;;;;5025974;28;20047;-74
2022/10/26 05:51:46;;;;;;;14.43;4.28;;;;;;;;;;5026095;28;20065;-74
2022/10/26 05:54:12;;;;;;;8.45;4.25;;;;;;;;;;5024757;28;20049;-74
2022/10/26 05:56:39;;;;;;;8.52;4.05;;;;;;;;;;5029614;28;20045;-75
2022/10/26 05:59:13;;;;;;;8.07;4.38;;;;;;;;;;5029767;28;20076;-74
2022/10/26 06:01:52;;;;;;;17.02;4.25;;;;;;;;;;5025158;28;20103;-71
2022/10/26 06:04:37;;;;;;;22.05;4.35;;;;;;;;;;5021758;28;20068;-66
2022/10/26 06:07:11;;;;;;;8.73;4.40;;;;;;;;;;5027206;28;20065;-73
2022/10/26 06:09:38;;;;;;;15.50;4.82;;;;;;;;;;5025512;28;20057;-72
2022/10/26 06:12:06;;;;;;;11.70;4.93;;;;;;;;;;5025216;28;20042;-70
2022/10/26 06:14:33;;;;;;;19.88;4.50;;;;;;;;;;5026609;28;20052;-70
2022/10/26 06:17:12;;;;;;;22.38;5.38;;;;;;;;;;5027751;28;20080;-73
2022/10/26 06:19:48;;;;;;;18.00;4.95;;;;;;;;;;5024833;28;20052;-73
2022/10/26 06:22:30;;;;;;;22.52;5.30;;;;;;;;;;5025168;28;20044;-73
2022/10/26 06:25:12;;;;;;;14.32;5.22;;;;;;;;;;5025633;28;20034;-73
2022/10/26 06:27:50;;;;;;;12.52;4.97;;;;;;;;;;5025019;28;20056;-73
2022/10/26 06:30:19;;;;;;;10.88;4.60;;;;;;;;;;5025281;28;20136;-73
2022/10/26 06:32:45;;;;;;;16.05;5.03;;;;;;;;;;5026641;28;20077;-73
2022/10/26 06:35:24;;;;;;;14.75;5.55;;;;;;;;;;5029171;28;20103;-73
2022/10/26 06:37:51;;;;;;;19.67;5.45;;;;;;;;;;5025455;28;20425;-73
2022/10/26 06:40:18;;;;;;;14.05;5.20;;;;;;;;;;5024843;28;20042;-73
2022/10/26 06:42:45;;;;;;;9.00;5.35;;;;;;;;;;5025044;28;20400;-70
2022/10/26 06:45:13;;;;;;;14.05;4.78;;;;;;;;;;5023981;28;20093;-68
2022/10/26 06:47:44;;;;;;;10.33;5.23;;;;;;;;;;5027135;28;20053;-70
2022/10/26 06:50:37;;;;;;;16.02;4.70;;;;;;;;;;5028683;28;20816;-70
2022/10/26 06:53:13;;;;;;;13.17;5.10;;;;;;;;;;5026687;28;20062;-70
2022/10/26 06:55:41;;;;;;;14.82;5.45;;;;;;;;;;5025295;28;20041;-69
2022/10/26 06:58:14;;;;;;;15.27;5.03;;;;;;;;;;5024107;28;20409;-69
2022/10/26 07:00:41;;;;;;;8.57;5.07;;;;;;;;;;5028284;28;20053;-71
2022/10/26 07:03:08;;;;;;;10.15;5.25;;;;;;;;;;5028956;28;20042;-71
2022/10/26 07:05:34;;;;;;;11.02;4.82;;;;;;;;;;5028281;28;20037;-71
2022/10/26 07:08:01;;;;;;;15.57;5.00;;;;;;;;;;5027681;28;20045;-73
2022/10/26 07:10:27;;;;;;;11.98;5.45;;;;;;;;;;5025221;28;20034;-69
2022/10/26 07:14:28;;;;;;;16.90;5.65;;;;;;;;;;5084581;28;20459;-37
2022/10/26 07:16:55;;;;;;;13.02;4.97;;;;;;;;;;5087049;28;20519;-50
2022/10/26 07:19:22;;;;;;;11.88;5.63;;;;;;;;;;5086433;28;20128;-43
2022/10/26 07:21:49;;;;;;;15.40;6.43;;;;;;;;;;5086646;28;20059;-35
2022/10/26 07:24:15;;;;;;;15.20;5.47;;;;;;;;;;5086166;28;20044;-35
2022/10/26 07:26:42;;;;;;;14.15;5.45;;;;;;;;;;5085848;28;20048;-41
2022/10/26 07:29:08;;;;;;;9.57;5.38;;;;;;;;;;5086594;28;20032;-35
2022/10/26 07:31:35;;;;;;;13.18;5.55;;;;;;;;;;5085607;28;20049;-35
2022/10/26 07:34:01;;;;;;;13.35;4.78;;;;;;;;;;5073296;28;20448;-35
2022/10/26 07:36:28;;;;;;;11.63;5.55;;;;;;;;;;5077188;28;20040;-34
2022/10/26 07:38:55;;;;;;;11.23;5.20;;;;;;;;;;5079212;28;20055;-37
2022/10/26 07:41:21;;;;;;;13.13;5.25;;;;;;;;;;5083072;28;20394;-35
2022/10/26 07:43:49;;;;;;;12.15;4.63;;;;;;;;;;5085179;28;20107;-36
2022/10/26 07:46:16;;;;;;;12.10;5.03;;;;;;;;;;5085649;28;20131;-43
2022/10/26 07:48:43;;;;;;;14.52;5.80;;;;;;;;;;5086007;28;20032;-37
2022/10/26 07:51:15;;;;;;;19.33;5.22;;;;;;;;;;5085961;28;20063;-36
2022/10/26 07:53:41;;;;;;;17.15;5.35;;;;;;;;;;5085836;28;20051;-43
2022/10/26 07:56:09;;;;;;;15.15;5.25;;;;;;;;;;5086589;28;20040;-40
2022/10/26 07:58:35;;;;;;;12.43;5.05;;;;;;;;;;5079127;28;20068;-48
2022/10/26 08:01:09;;;;;;;15.05;5.05;;;;;;;;;;5078772;28;20036;-36
2022/10/26 08:03:35;;;;;;;12.63;4.72;;;;;;;;;;5085520;28;20576;-46
2022/10/26 08:06:03;;;;;;;13.52;4.85;;;;;;;;;;5085421;28;20536;-34
2022/10/26 08:08:30;;;;;;;10.30;5.20;;;;;;;;;;5078516;28;20109;-35
2022/10/26 08:10:57;;;;;;;13.93;5.13;;;;;;;;;;5085695;28;20047;-35
2022/10/26 08:13:24;;;;;;;11.45;4.97;;;;;;;;;;5084751;28;20052;-42
2022/10/26 08:15:57;;;;;;;12.38;4.95;;;;;;;;;;5085532;28;20032;-36
2022/10/26 08:18:24;;;;;;;13.52;5.47;;;;;;;;;;5085440;28;20040;-37
2022/10/26 08:20:50;;;;;;;14.32;5.18;;;;;;;;;;5085377;28;20046;-35
2022/10/26 08:23:17;;;;;;;12.45;5.00;;;;;;;;;;5085657;28;20496;-36
2022/10/26 08:25:43;;;;;;;15.80;5.55;;;;;;;;;;5071867;28;20051;-40
2022/10/26 08:28:09;;;;;;;12.90;5.15;;;;;;;;;;5071293;28;20102;-37
2022/10/26 08:30:36;;;;;;;16.40;5.10;;;;;;;;;;5071615;28;20765;-40
2022/10/26 08:33:04;;;;;;;12.18;4.50;;;;;;;;;;5071773;28;20071;-35
2022/10/26 08:35:31;;;;;;;15.40;5.90;;;;;;;;;;5065386;28;20063;-38
2022/10/26 08:37:57;;;;;;;12.63;4.93;;;;;;;;;;5071815;28;20040;-48
2022/10/26 08:40:26;;;;;;;11.80;5.60;;;;;;;;;;5071109;28;20162;-35
2022/10/26 08:42:55;;;;;;;9.52;4.60;;;;;;;;;;5071418;28;20044;-40
2022/10/26 08:45:29;;;;;;;16.65;5.07;;;;;;;;;;5071438;28;20036;-35
2022/10/26 08:48:04;;;;;;;15.73;5.63;;;;;;;;;;5071588;28;20049;-36
2022/10/26 08:50:32;;;;;;;14.35;5.47;;;;;;;;;;5070883;28;20476;-36
2022/10/26 08:53:13;;;;;;;16.73;6.72;;;;;;;;;;5071243;28;20489;-38
2022/10/26 08:55:42;;;;;;;15.40;5.30;;;;;;;;;;5071079;28;20045;-38
2022/10/26 08:58:15;;;;;;;14.18;5.68;;;;;;;;;;5065036;28;20508;-35
2022/10/26 09:00:42;;;;;;;10.65;5.18;;;;;;;;;;5070883;28;20044;-36
2022/10/26 09:03:13;;;;;;;14.68;5.72;;;;;;;;;;5070635;28;20045;-36
2022/10/26 09:05:55;;;;;;;13.05;5.38;;;;;;;;;;5070785;28;20117;-35
2022/10/26 09:08:25;;;;;;;15.45;5.55;;;;;;;;;;5070950;28;20044;-36
2022/10/26 09:11:01;;;;;;;10.15;5.25;;;;;;;;;;5071060;28;20036;-40
2022/10/26 09:13:40;;;;;;;15.48;5.50;;;;;;;;;;5063307;28;20080;-39
2022/10/26 09:16:27;;;;;;;15.75;6.15;;;;;;;;;;5068719;28;20048;-36
2022/10/26 09:19:03;;;;;;;13.73;6.57;;;;;;;;;;5070214;28;20050;-36
2022/10/26 09:21:47;;;;;;;10.93;5.57;;;;;;;;;;5070076;28;20041;-36
2022/10/26 09:24:17;;;;;;;12.38;5.60;;;;;;;;;;5070824;28;20481;-42
2022/10/26 09:26:43;;;;;;;15.32;5.72;;;;;;;;;;5070985;28;20040;-35
2022/10/26 09:29:11;;;;;;;16.05;5.80;;;;;;;;;;5069986;28;20036;-35
2022/10/26 09:31:39;;;;;;;13.20;5.90;;;;;;;;;;5063573;28;20045;-35
2022/10/26 09:34:16;;;;;;;8.25;5.22;;;;;;;;;;5061470;28;20096;-35
2022/10/26 09:36:42;;;;;;;15.95;5.40;;;;;;;;;;5059462;28;20532;-35
2022/10/26 09:39:23;;;;;;;9.38;5.63;;;;;;;;;;5070772;28;20064;-36
2022/10/26 09:41:54;;;;;;;19.33;5.43;;;;;;;;;;5070691;28;20055;-34
2022/10/26 09:44:24;;;;;;;9.93;5.13;;;;;;;;;;5070955;28;20046;-34
2022/10/26 09:46:51;;;;;;;13.05;5.78;;;;;;;;;;5070882;28;20508;-42
2022/10/26 09:49:19;;;;;;;12.63;5.03;;;;;;;;;;5070952;28;20048;-42
2022/10/26 09:51:47;;;;;;;16.15;5.57;;;;;;;;;;5070604;28;20102;-42
2022/10/26 09:54:15;;;;;;;13.05;5.13;;;;;;;;;;5070791;28;20036;-36
2022/10/26 09:56:48;;;;;;;10.38;5.40;;;;;;;;;;5069816;28;20036;-39
2022/10/26 09:59:17;;;;;;;15.55;5.30;;;;;;;;;;5071342;28;20037;-42
2022/10/26 10:01:43;;;;;;;12.02;5.40;;;;;;;;;;5070907;28;20048;-39
2022/10/26 10:04:12;;;;;;;14.32;5.47;;;;;;;;;;5070629;28;20133;-44
2022/10/26 10:06:39;;;;;;;8.07;5.00;;;;;;;;;;5069944;28;20059;-34
2022/10/26 10:09:09;;;;;;;9.75;5.03;;;;;;;;;;5070215;28;20040;-35
2022/10/26 10:11:41;;;;;;;11.45;5.53;;;;;;;;;;5070445;28;20049;-35
2022/10/26 10:14:13;;;;;;;11.10;5.60;;;;;;;;;;5070556;28;20056;-35
2022/10/26 10:16:39;;;;;;;10.85;5.57;;;;;;;;;;5070029;28;20404;-41
2022/10/26 10:19:19;;;;;;;7.78;5.40;;;;;;;;;;5069813;28;20037;-35
